Clearwater, Idaho
Current Conditions -  °F | °C
As of 7:55 AM on Sunday 21 Dec 2014 (Local Time) from KGIC Reporting Station
Broken Clouds Broken Clouds  
Wind Chill: 36°   Ceiling: 3500
Heat Index: 45°   Visibility: 10mi
Dew Point: 38°   Wind: 25mph
Humidity: 76%   Direction: 240°WSW
Pressure: 29.79"   Gusts: 32mph
Location:  46.2989°N, 115.619°W
Report Text: KGIC 211555Z AUTO 24022G28KT 10SM SCT017 SCT029 BKN035 07/03 A2979 RMK AO1 P0001 T00710032
Loading
Personal Weather Stations






























Interactive Weather Map New forecast layout! Learn more

10-Day Weather Forecast

Advertisements
Track Severe Weather on mobile